Corunna, MI

12:23 AM EDT on September 05, 2015 (GMT -0400)
State Farm Insurance | | Change Station
CLOSE
Current Station
Personal Weather Station
Location: Owosso, MI
Elevation: 735 ft
Nearby Weather Stations

Elev 735 ft 43.00 °N, 84.16 °W | Updated 13 seconds ago

Mostly Cloudy
Mostly Cloudy
70.9 °F
Feels Like 70.9 °F
N
0.0
Wind Variable Wind from ESE
Gusts 0.0 mph

Today
High -- | Low -- °F
--% Chance of Precip.
Yesterday
High -- | Low -- °F
Precip. -- in
7:04 AM 8:04 PM
Waning Gibbous, 52% visible
Pressure 30.07 in
Visibility 7.0 miles
Clouds Mostly Cloudy 3400 ft
Mostly Cloudy 4400 ft
Mostly Cloudy 6000 ft
Dew Point 69 °F
Humidity 94%
Rainfall 0.00 in
Snow Depth Not available.
UV 0.0 out of 12
Pollen 8.60 out of 12
Air Quality Not available.
Flu Activity Not available.
METAR KRNP 050415Z AUTO 00000KT 7SM BKN034 BKN044 BKN060 22/21 A3007 RMK AO2 T02180208
Pressure 30.07 in
Visibility 7.0 miles
Clouds Mostly Cloudy 3400 ft
Mostly Cloudy 4400 ft
Mostly Cloudy 6000 ft
Dew Point 69 °F
Humidity 94%
Rainfall 0.00 in
Snow Depth Not available.
UV 0.0 out of 12
Pollen 8.60 out of 12
Air Quality Not available.
Flu Activity Not available.
METAR KRNP 050415Z AUTO 00000KT 7SM BKN034 BKN044 BKN060 22/21 A3007 RMK AO2 T02180208

10-Day Weather Forecast

×

Almanac

Astronomy

Sep. 05, 2015 Rise Set
Actual Time
Civil Twilight
Nautical Twilight
Astronomical Twilight
Moon
Length of Visible Light
Length of Day
Tomorrow will be .
, % of the Moon is Illuminated

Today's Extremes

State Highs State Lows

Community

WunderPhotos

Upload Photos

1,852,423 photos uploaded!

WunderBlogs® & News

Nearby

Air Quality

  Air Quality AQ Index Pollutant
Not available.

Snow Depth

Station Depth Elevation

Earthquake Activity

City Distance Mag. Time & Date
Minimum magnitude displayed is 2.5.

Coastal Water Temperatures

Place Temperature

Stations

Nearby Weather Stations

Station Location Temp. Windchill Dew Point Humidity Wind Precip. Elev Updated Type